Time;durP1;ratioP1;P1;durP2;ratioP2;P2;SDS_P1;SDS_P2;PMS_P1;PMS_P2;Temp;Humidity;BMP_temperature;BMP_pressure;BME280_temperature;BME280_humidity;BME280_pressure;Samples;Min_cycle;Max_cycle;Signal;HPM_P1;HPM_P2
2022/03/18 00:02:21;;;;;;;9.25;3.95;;;2.90;99.90;;;;;;4808324;29;20096;-84
2022/03/18 00:04:48;;;;;;;9.13;3.70;;;3.40;99.90;;;;;;4834517;29;20386;-83
2022/03/18 00:07:15;;;;;;;11.40;4.25;;;3.30;99.90;;;;;;4818215;29;20134;-84
2022/03/18 00:09:41;;;;;;;8.35;3.67;;;2.70;99.90;;;;;;4835907;29;20050;-83
2022/03/18 00:12:11;;;;;;;9.20;3.50;;;2.70;99.90;;;;;;4806939;29;20057;-85
2022/03/18 00:14:39;;;;;;;9.68;3.75;;;2.80;99.90;;;;;;4819333;29;20060;-84
2022/03/18 00:17:06;;;;;;;10.95;4.38;;;3.20;99.90;;;;;;4834023;29;20520;-84
2022/03/18 00:19:33;;;;;;;10.48;4.82;;;2.90;99.90;;;;;;4809365;29;20081;-85
2022/03/18 00:22:01;;;;;;;9.13;3.28;;;3.00;99.90;;;;;;4807853;29;20054;-84
2022/03/18 00:24:34;;;;;;;9.18;4.18;;;3.00;99.90;;;;;;4806993;29;20062;-84
2022/03/18 00:27:00;;;;;;;9.05;3.83;;;3.10;99.90;;;;;;4809420;29;20050;-84
2022/03/18 00:29:27;;;;;;;8.73;4.05;;;2.90;99.90;;;;;;4833545;29;20055;-83
2022/03/18 00:31:53;;;;;;;11.40;4.45;;;2.90;99.90;;;;;;4804629;29;20063;-83
2022/03/18 00:34:20;;;;;;;7.38;3.70;;;2.90;99.90;;;;;;4803756;29;20043;-84
2022/03/18 00:36:46;;;;;;;8.02;4.07;;;3.50;99.90;;;;;;4810406;29;20058;-84
2022/03/18 00:39:12;;;;;;;8.70;4.05;;;3.20;99.90;;;;;;4816987;29;20077;-84
2022/03/18 00:41:37;;;;;;;11.65;3.88;;;2.90;99.90;;;;;;4814424;29;20055;-85
2022/03/18 00:44:04;;;;;;;7.97;3.88;;;3.00;99.90;;;;;;4821239;29;20050;-85
2022/03/18 00:46:30;;;;;;;5.78;3.85;;;3.00;99.90;;;;;;4822324;29;20381;-84
2022/03/18 00:54:24;;;;;;;9.05;4.82;;;3.60;99.90;;;;;;4805342;29;20055;-84
2022/03/18 00:56:49;;;;;;;7.90;4.95;;;2.70;99.90;;;;;;4833909;29;20054;-84
2022/03/18 00:59:15;;;;;;;9.73;4.57;;;3.80;99.90;;;;;;4833231;29;20724;-84
2022/03/18 01:01:42;;;;;;;14.23;4.72;;;2.70;99.90;;;;;;4818737;29;20046;-84
2022/03/18 01:04:07;;;;;;;10.15;4.60;;;2.70;99.90;;;;;;4818827;29;20110;-85
2022/03/18 01:06:34;;;;;;;12.00;4.43;;;2.70;99.90;;;;;;4836376;29;20133;-84
2022/03/18 01:09:01;;;;;;;13.00;4.45;;;3.60;99.90;;;;;;4806237;29;20170;-84
2022/03/18 01:11:27;;;;;;;10.02;4.53;;;3.60;99.90;;;;;;4835507;29;20051;-85
2022/03/18 01:13:53;;;;;;;10.02;4.50;;;2.80;99.90;;;;;;4833676;29;20196;-85
2022/03/18 01:16:18;;;;;;;9.25;4.72;;;2.90;99.90;;;;;;4804619;29;20469;-84
2022/03/18 01:18:44;;;;;;;8.50;4.65;;;2.90;99.90;;;;;;4808108;29;20049;-82
2022/03/18 01:21:10;;;;;;;9.55;4.10;;;2.90;99.90;;;;;;4821324;29;20050;-84
2022/03/18 01:23:35;;;;;;;9.30;4.13;;;2.90;99.90;;;;;;4821604;29;20137;-84
2022/03/18 01:26:01;;;;;;;12.35;4.20;;;2.80;99.90;;;;;;4807695;29;20047;-84
2022/03/18 01:28:27;;;;;;;11.35;3.97;;;3.10;99.90;;;;;;4819812;29;20109;-84
2022/03/18 01:30:54;;;;;;;9.23;3.85;;;3.20;99.90;;;;;;4806512;29;20050;-84
2022/03/18 01:33:19;;;;;;;12.98;4.63;;;2.50;99.90;;;;;;4821616;29;20413;-84
2022/03/18 01:35:45;;;;;;;9.38;4.40;;;2.50;99.90;;;;;;4833386;29;20062;-85
2022/03/18 01:38:11;;;;;;;10.55;4.20;;;2.70;99.90;;;;;;4817880;29;20046;-85
2022/03/18 01:40:36;;;;;;;9.48;4.10;;;2.50;99.90;;;;;;4833198;29;20063;-85
2022/03/18 01:43:06;;;;;;;10.07;4.68;;;2.50;99.90;;;;;;4803928;29;20138;-84
2022/03/18 01:45:31;;;;;;;11.57;4.80;;;2.50;99.90;;;;;;4832988;29;20057;-84
2022/03/18 01:47:57;;;;;;;11.48;4.82;;;2.40;99.90;;;;;;4833375;29;20047;-84
2022/03/18 01:50:23;;;;;;;8.98;4.53;;;3.00;99.90;;;;;;4833593;29;20047;-83
2022/03/18 01:52:48;;;;;;;11.98;4.82;;;2.30;99.90;;;;;;4836689;29;20507;-84
2022/03/18 01:55:15;;;;;;;11.02;5.47;;;2.30;99.90;;;;;;4821419;29;20123;-83
2022/03/18 01:57:43;;;;;;;8.55;4.95;;;3.00;99.90;;;;;;4837106;29;20090;-84
2022/03/18 02:00:10;;;;;;;7.72;4.85;;;2.60;99.90;;;;;;4819197;29;20063;-84
2022/03/18 02:02:36;;;;;;;12.15;5.75;;;2.30;99.90;;;;;;4807797;29;20066;-83
2022/03/18 02:05:04;;;;;;;8.02;4.60;;;2.80;99.90;;;;;;4819243;29;20062;-83
2022/03/18 02:07:30;;;;;;;10.60;5.25;;;2.20;99.90;;;;;;4816532;29;20059;-84
2022/03/18 02:09:55;;;;;;;17.13;6.43;;;2.20;99.90;;;;;;4806498;29;20115;-83
2022/03/18 02:12:21;;;;;;;14.30;5.78;;;2.20;99.90;;;;;;4808724;29;20055;-84
2022/03/18 02:14:47;;;;;;;11.27;5.25;;;2.20;99.90;;;;;;4839748;29;20618;-84
2022/03/18 02:17:16;;;;;;;13.73;6.00;;;2.30;99.90;;;;;;4824600;29;20722;-84
2022/03/18 02:19:45;;;;;;;11.02;5.10;;;2.30;99.90;;;;;;4823749;29;20454;-81
2022/03/18 02:22:22;;;;;;;10.02;5.18;;;2.40;99.90;;;;;;4816468;29;20050;-84
2022/03/18 02:24:54;;;;;;;13.10;5.80;;;2.70;99.90;;;;;;4817827;29;20066;-84
2022/03/18 02:27:20;;;;;;;10.52;5.00;;;2.60;99.90;;;;;;4807230;29;20062;-84
2022/03/18 02:29:46;;;;;;;9.77;5.32;;;3.00;99.90;;;;;;4811296;29;20042;-84
2022/03/18 02:32:19;;;;;;;11.57;5.65;;;2.50;99.90;;;;;;4824043;29;20038;-84
2022/03/18 02:34:45;;;;;;;9.50;4.88;;;2.80;99.90;;;;;;4824359;29;20054;-84
2022/03/18 02:37:11;;;;;;;12.55;5.55;;;3.40;99.90;;;;;;4839106;29;20066;-85
2022/03/18 02:39:37;;;;;;;9.85;5.47;;;2.40;99.90;;;;;;4821365;29;20536;-84
2022/03/18 02:42:04;;;;;;;10.73;5.68;;;3.30;99.90;;;;;;4811907;29;20058;-85
2022/03/18 02:44:30;;;;;;;10.52;5.78;;;2.40;99.90;;;;;;4812477;29;20062;-85
2022/03/18 02:46:58;;;;;;;13.02;5.72;;;2.90;99.90;;;;;;4835974;29;20103;-84
2022/03/18 02:49:25;;;;;;;13.85;6.03;;;2.40;99.90;;;;;;4836280;29;20408;-85
2022/03/18 02:51:51;;;;;;;10.63;5.10;;;3.50;99.90;;;;;;4805803;29;20120;-84
2022/03/18 02:54:17;;;;;;;12.00;5.50;;;2.30;99.90;;;;;;4835791;29;20435;-85
2022/03/18 02:56:43;;;;;;;10.50;5.15;;;2.70;99.90;;;;;;4835871;29;20051;-85
2022/03/18 02:59:09;;;;;;;11.82;5.43;;;2.50;99.90;;;;;;4828514;29;20129;-84
2022/03/18 03:01:35;;;;;;;12.95;6.50;;;2.70;99.90;;;;;;4821831;29;20061;-85
2022/03/18 03:04:01;;;;;;;8.88;4.88;;;2.70;99.90;;;;;;4820544;29;20081;-85
2022/03/18 03:09:12;;;;;;;10.40;6.10;;;2.30;99.90;;;;;;4823599;29;20064;-84
2022/03/18 03:11:38;;;;;;;9.93;5.13;;;2.30;99.90;;;;;;4821722;29;20069;-84
2022/03/18 03:14:04;;;;;;;13.18;6.10;;;2.30;99.90;;;;;;4814108;29;20046;-84
2022/03/18 03:16:30;;;;;;;8.43;5.13;;;2.20;99.90;;;;;;4832346;29;20054;-85
2022/03/18 03:18:56;;;;;;;11.20;5.03;;;3.40;99.90;;;;;;4833536;29;20053;-85
2022/03/18 03:21:22;;;;;;;12.30;5.70;;;2.70;99.90;;;;;;4835799;29;20059;-85
2022/03/18 03:23:47;;;;;;;8.68;4.80;;;2.40;99.90;;;;;;4835019;29;20067;-85
2022/03/18 03:26:14;;;;;;;14.85;6.10;;;2.50;99.90;;;;;;4835233;29;20054;-84
2022/03/18 03:28:41;;;;;;;10.95;5.20;;;2.30;99.90;;;;;;4835202;29;20778;-84
2022/03/18 03:31:07;;;;;;;10.82;5.22;;;2.50;99.90;;;;;;4817283;29;20058;-84
2022/03/18 03:33:33;;;;;;;10.68;5.93;;;2.40;99.90;;;;;;4823258;29;20496;-84
2022/03/18 03:35:59;;;;;;;11.90;6.45;;;2.30;99.90;;;;;;4806141;29;20059;-84
2022/03/18 03:38:25;;;;;;;15.95;5.95;;;2.80;99.90;;;;;;4822550;29;20061;-83
2022/03/18 03:40:51;;;;;;;16.17;5.22;;;2.40;99.90;;;;;;4819540;29;20051;-84
2022/03/18 03:43:17;;;;;;;9.00;5.68;;;2.90;99.90;;;;;;4813410;29;20054;-83
2022/03/18 03:45:43;;;;;;;9.60;5.03;;;2.30;99.90;;;;;;4805839;29;20050;-85
2022/03/18 03:48:10;;;;;;;10.63;5.43;;;2.50;99.90;;;;;;4808807;29;20047;-84
2022/03/18 03:50:37;;;;;;;9.57;4.93;;;2.60;99.90;;;;;;4824212;29;20140;-84
2022/03/18 03:53:03;;;;;;;14.70;5.05;;;2.20;99.90;;;;;;4806406;29;20055;-85
2022/03/18 03:55:29;;;;;;;16.63;5.68;;;2.30;99.90;;;;;;4804454;29;20152;-84
2022/03/18 03:57:55;;;;;;;12.10;5.30;;;3.30;99.90;;;;;;4805561;29;20063;-84
2022/03/18 04:00:21;;;;;;;15.48;5.57;;;3.00;99.90;;;;;;4824903;29;20386;-83
2022/03/18 04:02:47;;;;;;;10.18;5.20;;;2.20;99.90;;;;;;4817296;29;20058;-84
2022/03/18 04:05:13;;;;;;;12.13;5.03;;;2.30;99.90;;;;;;4823031;29;20058;-84
2022/03/18 04:07:41;;;;;;;9.65;4.90;;;2.30;99.90;;;;;;4822105;29;20058;-84
2022/03/18 04:10:10;;;;;;;8.70;5.15;;;2.30;99.90;;;;;;4813322;29;20410;-83
2022/03/18 04:12:35;;;;;;;9.20;5.50;;;2.40;99.90;;;;;;4807519;29;20112;-84
2022/03/18 04:15:03;;;;;;;10.10;6.10;;;3.00;99.90;;;;;;4804464;29;20055;-84
2022/03/18 04:17:46;;;;;;;10.57;5.30;;;2.50;99.90;;;;;;4805923;29;20504;-84
2022/03/18 04:20:18;;;;;;;10.50;5.10;;;2.50;99.90;;;;;;4822578;29;20054;-84
2022/03/18 04:22:44;;;;;;;8.35;5.38;;;2.50;99.90;;;;;;4809805;29;20065;-83
2022/03/18 04:25:10;;;;;;;8.98;4.50;;;3.20;99.90;;;;;;4837716;29;20093;-84
2022/03/18 04:27:38;;;;;;;11.25;5.25;;;2.70;99.90;;;;;;4817166;29;20086;-83
2022/03/18 04:30:05;;;;;;;9.02;5.15;;;2.50;99.90;;;;;;4833257;29;20055;-83
2022/03/18 04:32:31;;;;;;;8.82;5.50;;;2.50;99.90;;;;;;4810866;29;20057;-84
2022/03/18 04:34:57;;;;;;;9.77;5.25;;;3.10;99.90;;;;;;4819489;29;20153;-84
2022/03/18 04:37:22;;;;;;;12.40;5.35;;;3.00;99.90;;;;;;4814134;29;20066;-85
2022/03/18 04:39:48;;;;;;;11.75;5.25;;;2.80;99.90;;;;;;4804753;29;20086;-84
2022/03/18 04:42:14;;;;;;;8.70;5.45;;;2.50;99.90;;;;;;4803152;29;20058;-84
2022/03/18 04:44:39;;;;;;;11.55;6.10;;;3.40;99.90;;;;;;4820871;29;20133;-84
2022/03/18 04:47:05;;;;;;;16.02;5.78;;;2.70;99.90;;;;;;4819840;29;20777;-84
2022/03/18 04:49:31;;;;;;;12.45;5.88;;;2.60;99.90;;;;;;4821914;29;20110;-83
2022/03/18 04:51:57;;;;;;;7.72;4.90;;;2.70;99.90;;;;;;4814857;29;20054;-83
2022/03/18 04:54:23;;;;;;;11.07;4.70;;;2.50;99.90;;;;;;4803477;29;20058;-84
2022/03/18 04:59:33;;;;;;;14.57;5.97;;;2.50;99.90;;;;;;4820855;29;20086;-83
2022/03/18 05:01:58;;;;;;;10.20;4.35;;;3.00;99.90;;;;;;4814835;29;20147;-83
2022/03/18 05:04:24;;;;;;;7.57;4.55;;;2.50;99.90;;;;;;4833963;29;20059;-83
2022/03/18 05:06:50;;;;;;;12.55;5.05;;;2.70;99.90;;;;;;4819655;29;20062;-84
2022/03/18 05:09:16;;;;;;;11.30;5.57;;;2.70;99.90;;;;;;4807551;29;20443;-84
2022/03/18 05:11:42;;;;;;;7.95;4.30;;;2.80;99.90;;;;;;4820835;29;20054;-84
2022/03/18 05:14:07;;;;;;;10.50;4.75;;;2.30;99.90;;;;;;4808673;29;20480;-83
2022/03/18 05:16:33;;;;;;;10.50;5.07;;;2.50;99.90;;;;;;4822856;29;20098;-84
2022/03/18 05:18:59;;;;;;;12.55;4.57;;;2.30;99.90;;;;;;4806327;29;20042;-83
2022/03/18 05:21:25;;;;;;;8.13;4.18;;;2.70;99.90;;;;;;4821316;29;20604;-85
2022/03/18 05:23:50;;;;;;;12.45;4.70;;;2.30;99.90;;;;;;4821981;29;20050;-82
2022/03/18 05:26:16;;;;;;;10.02;5.50;;;2.40;99.90;;;;;;4807762;29;20108;-85
2022/03/18 05:28:42;;;;;;;11.02;5.70;;;2.50;99.90;;;;;;4834440;29;20489;-84
2022/03/18 05:31:09;;;;;;;10.05;5.40;;;2.00;99.90;;;;;;4807111;29;20138;-83
2022/03/18 05:33:34;;;;;;;8.80;5.57;;;2.10;99.90;;;;;;4821477;29;20111;-83
2022/03/18 05:36:00;;;;;;;12.32;6.30;;;2.40;99.90;;;;;;4807992;29;20051;-83
2022/03/18 05:38:26;;;;;;;9.75;5.95;;;2.50;99.90;;;;;;4836897;29;20481;-84
2022/03/18 05:40:53;;;;;;;11.90;4.80;;;2.80;99.90;;;;;;4806142;29;20047;-85
2022/03/18 05:43:18;;;;;;;9.80;5.03;;;2.70;99.90;;;;;;4821807;29;20058;-84
2022/03/18 05:45:45;;;;;;;10.38;5.53;;;2.70;99.90;;;;;;4807085;29;20508;-85
2022/03/18 05:48:12;;;;;;;11.85;6.07;;;3.00;99.90;;;;;;4839800;29;20453;-84
2022/03/18 05:50:38;;;;;;;9.45;5.78;;;3.20;99.90;;;;;;4837083;29;20086;-84
2022/03/18 05:53:04;;;;;;;11.02;6.25;;;2.70;99.90;;;;;;4819540;29;20093;-83
2022/03/18 05:56:52;;;;;;;15.82;7.63;;;2.50;99.90;;;;;;4806805;29;20051;-84
2022/03/18 05:58:17;;;;;;;7.72;5.68;;;2.60;99.90;;;;;;4806851;29;20394;-84
2022/03/18 06:00:44;;;;;;;11.48;6.25;;;2.40;99.90;;;;;;4822752;29;20062;-84
2022/03/18 06:03:10;;;;;;;10.45;5.93;;;2.40;99.90;;;;;;4826340;29;20119;-85
2022/03/18 06:05:36;;;;;;;8.85;6.13;;;2.50;99.90;;;;;;4817809;29;20087;-83
2022/03/18 06:13:30;;;;;;;57.47;23.05;;;3.20;99.90;;;;;;4809861;29;20146;-85
2022/03/18 06:15:56;;;;;;;51.78;20.42;;;2.70;99.90;;;;;;4840109;29;20063;-84
2022/03/18 06:18:22;;;;;;;32.13;15.02;;;2.40;99.90;;;;;;4836258;29;20477;-85
2022/03/18 06:20:51;;;;;;;37.08;15.20;;;2.20;99.90;;;;;;4806514;29;20462;-85
2022/03/18 06:23:17;;;;;;;38.72;17.58;;;2.30;99.90;;;;;;4806264;29;20493;-84
2022/03/18 06:25:43;;;;;;;25.98;11.88;;;2.30;99.90;;;;;;4821236;29;20087;-84
2022/03/18 06:28:09;;;;;;;20.95;9.68;;;2.30;99.90;;;;;;4816711;29;20047;-86
2022/03/18 06:30:35;;;;;;;12.75;6.15;;;2.30;99.90;;;;;;4809265;29;20061;-85
2022/03/18 06:33:01;;;;;;;10.63;5.25;;;2.30;99.90;;;;;;4824161;29;20042;-85
2022/03/18 06:35:27;;;;;;;11.98;10.75;;;2.80;99.90;;;;;;4824236;29;20062;-85
2022/03/18 06:37:54;;;;;;;11.10;6.63;;;2.30;99.90;;;;;;4809926;29;20059;-85
2022/03/18 06:40:20;;;;;;;14.13;7.72;;;2.30;99.90;;;;;;4820469;29;20069;-85
2022/03/18 06:42:45;;;;;;;11.50;6.70;;;2.30;99.90;;;;;;4838367;29;20054;-85
2022/03/18 06:45:11;;;;;;;7.95;5.57;;;2.50;99.90;;;;;;4839224;29;20058;-86
2022/03/18 06:47:37;;;;;;;9.63;5.63;;;2.50;99.90;;;;;;4822971;29;20061;-85
2022/03/18 06:50:03;;;;;;;11.27;6.03;;;2.50;99.90;;;;;;4838676;29;20679;-85
2022/03/18 06:52:29;;;;;;;9.52;6.30;;;2.50;99.90;;;;;;4812452;29;20435;-85
2022/03/18 06:54:54;;;;;;;19.63;7.18;;;3.10;99.90;;;;;;4839097;29;20058;-85
2022/03/18 06:57:21;;;;;;;8.82;5.30;;;3.10;99.90;;;;;;4806499;29;20082;-85
2022/03/18 06:59:47;;;;;;;9.05;5.10;;;3.00;99.90;;;;;;4822293;29;20557;-85
2022/03/18 07:02:15;;;;;;;9.55;5.80;;;3.10;99.90;;;;;;4823736;29;20134;-85
2022/03/18 07:04:41;;;;;;;11.35;5.82;;;3.00;99.90;;;;;;4820647;29;20069;-86
2022/03/18 07:07:07;;;;;;;11.35;6.07;;;3.40;99.90;;;;;;4811924;29;20046;-86
2022/03/18 07:09:33;;;;;;;6.55;5.10;;;3.90;99.90;;;;;;4839891;29;20054;-86
2022/03/18 07:11:58;;;;;;;9.07;5.57;;;3.20;99.90;;;;;;4815947;29;20094;-85
2022/03/18 07:14:24;;;;;;;7.55;5.32;;;3.60;99.90;;;;;;4823469;29;20062;-83
2022/03/18 07:19:34;;;;;;;9.50;6.53;;;3.40;99.90;;;;;;4806544;29;20051;-85
2022/03/18 07:22:00;;;;;;;9.15;6.30;;;3.50;99.90;;;;;;4806295;29;20046;-85
2022/03/18 07:24:26;;;;;;;8.73;6.07;;;3.70;99.90;;;;;;4820535;29;20394;-84
2022/03/18 07:26:51;;;;;;;8.45;5.88;;;3.80;99.90;;;;;;4808152;29;20054;-84
2022/03/18 07:29:17;;;;;;;13.38;6.38;;;3.80;99.90;;;;;;4823102;29;20081;-84
2022/03/18 07:31:42;;;;;;;12.85;6.22;;;4.20;99.90;;;;;;4823198;29;20046;-84
2022/03/18 07:34:08;;;;;;;17.30;6.57;;;4.00;99.90;;;;;;4823194;29;20059;-84
2022/03/18 07:36:34;;;;;;;10.27;6.60;;;4.90;99.90;;;;;;4820712;29;20050;-84
2022/03/18 07:39:00;;;;;;;12.27;6.97;;;4.30;99.90;;;;;;4819503;29;20054;-84
2022/03/18 07:41:25;;;;;;;15.00;7.40;;;4.40;99.90;;;;;;4834921;29;20073;-84
2022/03/18 07:43:51;;;;;;;15.38;7.97;;;4.60;99.90;;;;;;4812366;29;20486;-84
2022/03/18 07:46:17;;;;;;;12.13;7.15;;;4.70;99.90;;;;;;4811157;29;20057;-85
2022/03/18 07:48:44;;;;;;;17.08;8.45;;;4.80;99.90;;;;;;4835154;29;20058;-84
2022/03/18 07:51:11;;;;;;;9.85;7.60;;;4.90;99.90;;;;;;4836093;29;20474;-84
2022/03/18 07:53:37;;;;;;;13.93;8.50;;;5.00;99.90;;;;;;4819646;29;20492;-84
2022/03/18 07:56:04;;;;;;;16.35;10.50;;;5.30;99.90;;;;;;4834330;29;20130;-83
2022/03/18 07:58:30;;;;;;;18.02;11.05;;;5.30;99.90;;;;;;4809753;29;20054;-84
2022/03/18 08:00:56;;;;;;;18.33;10.48;;;5.40;99.90;;;;;;4822266;29;20508;-84
2022/03/18 08:03:22;;;;;;;19.15;10.65;;;5.60;99.90;;;;;;4822811;29;20061;-85
2022/03/18 08:05:47;;;;;;;15.98;10.77;;;5.80;99.90;;;;;;4809744;29;20180;-84
2022/03/18 08:08:13;;;;;;;21.23;10.75;;;6.00;99.90;;;;;;4831653;29;20066;-84
2022/03/18 08:10:39;;;;;;;19.52;11.32;;;6.20;99.90;;;;;;4835183;29;20128;-83
2022/03/18 08:13:05;;;;;;;18.13;10.43;;;6.20;99.90;;;;;;4833577;29;20549;-86
2022/03/18 08:15:31;;;;;;;15.98;10.75;;;6.30;99.90;;;;;;4820945;29;20058;-86
2022/03/18 08:17:57;;;;;;;19.17;11.20;;;6.40;99.90;;;;;;4820462;29;20064;-86
2022/03/18 08:20:24;;;;;;;17.13;10.27;;;6.50;99.90;;;;;;4804285;29;20055;-86
2022/03/18 08:22:50;;;;;;;15.25;10.68;;;6.60;99.90;;;;;;4806603;29;20057;-86
2022/03/18 08:25:18;;;;;;;18.83;10.50;;;6.60;99.90;;;;;;4814591;29;20111;-86
2022/03/18 08:27:45;;;;;;;17.92;10.35;;;6.90;99.90;;;;;;4817040;29;20049;-86
2022/03/18 08:30:11;;;;;;;15.70;9.70;;;6.90;99.90;;;;;;4833498;29;20209;-80
2022/03/18 08:32:38;;;;;;;19.27;10.75;;;6.90;99.90;;;;;;4800868;29;20437;-82
2022/03/18 08:35:05;;;;;;;17.48;11.32;;;7.00;99.90;;;;;;4821280;29;20054;-82
2022/03/18 08:40:15;;;;;;;18.02;10.85;;;7.20;99.90;;;;;;4823111;29;20134;-82
2022/03/18 08:42:41;;;;;;;16.63;10.23;;;7.30;99.90;;;;;;4817983;29;20055;-82
2022/03/18 08:45:07;;;;;;;17.52;10.70;;;7.40;99.90;;;;;;4833955;29;20184;-83
2022/03/18 08:47:33;;;;;;;18.02;10.60;;;7.50;99.90;;;;;;4838180;29;20065;-84
2022/03/18 08:49:59;;;;;;;17.75;10.82;;;7.60;99.90;;;;;;4820246;29;20711;-84
2022/03/18 08:52:25;;;;;;;15.25;9.95;;;7.70;99.90;;;;;;4820903;29;20054;-84
2022/03/18 08:54:51;;;;;;;17.45;10.93;;;7.80;99.90;;;;;;4836394;29;20061;-83
2022/03/18 08:57:16;;;;;;;16.50;10.70;;;7.90;99.90;;;;;;4813106;29;20054;-83
2022/03/18 08:59:42;;;;;;;16.10;9.60;;;8.00;99.90;;;;;;4840905;29;20061;-82
2022/03/18 09:02:09;;;;;;;18.63;10.60;;;8.40;99.90;;;;;;4819309;29;20179;-84
2022/03/18 09:04:35;;;;;;;17.73;10.38;;;8.20;99.90;;;;;;4812595;29;20140;-84
2022/03/18 09:07:01;;;;;;;17.75;10.82;;;8.30;99.90;;;;;;4829670;29;20449;-84
2022/03/18 09:09:26;;;;;;;20.27;12.23;;;8.40;99.90;;;;;;4821767;29;20389;-83
2022/03/18 09:11:53;;;;;;;16.52;10.68;;;8.60;99.90;;;;;;4820333;29;20507;-82
2022/03/18 09:14:18;;;;;;;16.60;11.13;;;8.70;99.90;;;;;;4822273;29;20050;-82
2022/03/18 09:16:44;;;;;;;15.77;10.65;;;8.80;99.90;;;;;;4809948;29;20058;-82
2022/03/18 09:19:10;;;;;;;19.60;10.52;;;9.00;99.90;;;;;;4809049;29;20054;-83
2022/03/18 09:21:36;;;;;;;17.40;12.13;;;9.20;99.90;;;;;;4827856;29;20507;-82
2022/03/18 09:24:02;;;;;;;17.92;10.23;;;9.40;99.90;;;;;;4834728;29;20050;-83
2022/03/18 09:26:28;;;;;;;18.52;10.30;;;9.50;99.90;;;;;;4817765;29;20100;-82
2022/03/18 09:28:54;;;;;;;20.05;10.68;;;9.70;99.90;;;;;;4821790;29;20565;-82
2022/03/18 09:31:20;;;;;;;18.42;10.60;;;9.80;99.90;;;;;;4816815;29;20089;-82
2022/03/18 09:33:46;;;;;;;21.08;11.00;;;9.90;99.90;;;;;;4821189;29;20122;-82
2022/03/18 09:36:17;;;;;;;19.33;10.52;;;10.10;99.90;;;;;;4819913;29;20602;-82
2022/03/18 09:38:43;;;;;;;17.52;11.23;;;10.30;99.90;;;;;;4815957;29;20058;-83
2022/03/18 09:41:09;;;;;;;21.25;10.65;;;10.40;99.90;;;;;;4789865;29;20117;-81
2022/03/18 09:43:37;;;;;;;17.13;10.07;;;10.50;99.90;;;;;;4818190;29;20058;-81
2022/03/18 09:46:08;;;;;;;20.00;10.10;;;10.60;99.90;;;;;;4818256;29;20086;-81
2022/03/18 09:48:35;;;;;;;19.90;11.07;;;10.70;99.90;;;;;;4821209;29;20054;-84
2022/03/18 09:51:01;;;;;;;15.63;10.65;;;10.90;99.90;;;;;;4821119;29;20058;-83
2022/03/18 09:53:27;;;;;;;19.40;11.00;;;11.00;99.90;;;;;;4820562;29;20137;-83
2022/03/18 09:55:53;;;;;;;18.95;10.18;;;11.10;99.90;;;;;;4835981;29;20206;-83
2022/03/18 09:58:20;;;;;;;15.93;10.35;;;11.10;99.90;;;;;;4820293;29;20058;-83
2022/03/18 10:00:46;;;;;;;17.63;10.18;;;11.20;99.90;;;;;;4821473;29;20145;-82
2022/03/18 10:03:16;;;;;;;19.73;10.48;;;11.40;99.90;;;;;;4818465;29;20058;-82
2022/03/18 10:05:59;;;;;;;16.52;10.45;;;11.50;99.90;;;;;;4833216;29;20063;-83
2022/03/18 10:08:45;;;;;;;16.67;9.73;;;11.60;99.90;;;;;;4814394;29;20218;-82
2022/03/18 10:11:19;;;;;;;16.15;9.40;;;11.70;99.90;;;;;;4816816;29;20524;-83
2022/03/18 10:14:13;;;;;;;14.90;9.93;;;11.70;99.90;;;;;;4820288;29;20089;-81
2022/03/18 10:16:51;;;;;;;16.40;9.95;;;11.80;99.90;;;;;;4814711;29;20459;-84
2022/03/18 10:19:25;;;;;;;18.92;10.48;;;12.00;99.90;;;;;;4818325;29;20407;-83
2022/03/18 10:21:56;;;;;;;18.83;10.50;;;12.20;99.90;;;;;;4817600;29;20055;-84
2022/03/18 10:24:36;;;;;;;17.63;10.25;;;12.40;99.90;;;;;;4808675;29;20057;-84
2022/03/18 10:27:28;;;;;;;14.82;10.10;;;12.50;99.90;;;;;;4814569;29;20081;-82
2022/03/18 10:29:55;;;;;;;15.68;9.57;;;12.90;99.90;;;;;;4803507;29;20895;-83
2022/03/18 10:32:31;;;;;;;15.35;10.13;;;13.10;99.90;;;;;;4814169;29;20137;-81
2022/03/18 10:37:44;;;;;;;17.60;9.25;;;13.40;99.90;;;;;;4832669;29;20070;-81
2022/03/18 10:40:11;;;;;;;17.08;10.02;;;13.50;99.90;;;;;;4815160;29;20420;-81
2022/03/18 10:42:37;;;;;;;13.85;9.18;;;13.60;99.90;;;;;;4813183;29;20058;-81
2022/03/18 10:45:04;;;;;;;15.63;9.38;;;13.70;99.90;;;;;;4813565;29;20085;-81
2022/03/18 10:47:31;;;;;;;18.38;10.65;;;13.90;99.90;;;;;;4818473;29;20091;-81
2022/03/18 10:50:09;;;;;;;21.98;10.35;;;14.00;99.90;;;;;;4810243;29;20788;-81
2022/03/18 10:53:01;;;;;;;19.65;10.68;;;14.00;99.90;;;;;;4814207;29;20125;-81
2022/03/18 10:55:31;;;;;;;15.70;9.20;;;14.00;99.90;;;;;;4817049;29;20069;-81
2022/03/18 10:58:02;;;;;;;15.82;10.05;;;14.00;99.90;;;;;;4818041;29;20061;-83
2022/03/18 11:00:33;;;;;;;13.63;8.93;;;14.20;99.90;;;;;;4814996;29;20138;-83
2022/03/18 11:03:00;;;;;;;16.90;10.27;;;14.40;99.90;;;;;;4816008;29;20090;-84
2022/03/18 11:05:31;;;;;;;16.60;9.68;;;14.50;99.90;;;;;;4818241;29;20061;-82
2022/03/18 11:07:59;;;;;;;15.48;9.35;;;14.60;99.90;;;;;;4820114;29;20055;-81
2022/03/18 11:13:13;;;;;;;15.43;8.90;;;14.60;99.90;;;;;;4803501;29;20069;-83
2022/03/18 11:15:43;;;;;;;15.77;8.63;;;14.70;99.90;;;;;;4804926;29;20054;-82
2022/03/18 11:18:11;;;;;;;13.23;8.07;;;14.80;99.90;;;;;;4806227;29;20055;-84
2022/03/18 11:20:45;;;;;;;12.63;7.53;;;14.80;99.90;;;;;;4789886;29;20066;-85
2022/03/18 11:23:23;;;;;;;12.07;8.23;;;14.80;99.90;;;;;;4819398;29;20104;-85
2022/03/18 11:25:51;;;;;;;13.07;8.90;;;14.80;99.90;;;;;;4806159;29;20058;-83
2022/03/18 11:28:19;;;;;;;16.85;8.50;;;14.80;99.90;;;;;;4805793;29;20070;-82
2022/03/18 11:30:49;;;;;;;15.40;9.13;;;14.90;99.90;;;;;;4807893;29;20251;-82
2022/03/18 11:33:15;;;;;;;15.23;8.95;;;15.00;99.90;;;;;;4822981;29;20054;-83
2022/03/18 11:35:50;;;;;;;12.98;8.32;;;15.00;99.90;;;;;;4823012;29;20065;-83
2022/03/18 11:38:44;;;;;;;11.98;7.38;;;15.20;99.90;;;;;;4823148;29;20058;-83
2022/03/18 11:41:10;;;;;;;12.00;7.10;;;15.30;99.90;;;;;;4822699;29;20565;-85
2022/03/18 11:43:42;;;;;;;11.77;7.28;;;15.40;99.90;;;;;;4822636;29;20130;-85
2022/03/18 11:46:17;;;;;;;11.60;8.73;;;15.60;99.90;;;;;;4822851;29;20054;-84
2022/03/18 11:48:57;;;;;;;9.07;7.05;;;15.80;99.90;;;;;;4822730;29;20046;-84
2022/03/18 11:51:24;;;;;;;11.20;6.18;;;16.00;99.90;;;;;;4822467;29;20141;-84
2022/03/18 11:53:52;;;;;;;13.02;6.43;;;16.00;99.90;;;;;;4823040;29;20093;-84
2022/03/18 11:56:20;;;;;;;13.05;6.15;;;15.80;99.90;;;;;;4823801;29;20114;-84
2022/03/18 11:58:45;;;;;;;10.00;6.10;;;15.70;99.90;;;;;;4807355;29;20440;-84
2022/03/18 12:01:40;;;;;;;9.23;6.45;;;15.50;99.90;;;;;;4822659;29;20120;-84
2022/03/18 12:04:07;;;;;;;11.13;6.00;;;15.40;99.90;;;;;;4840495;29;20054;-83
2022/03/18 12:06:33;;;;;;;12.73;6.88;;;15.40;99.90;;;;;;4825132;29;20064;-84
2022/03/18 12:09:00;;;;;;;12.90;7.32;;;15.70;99.90;;;;;;4840023;29;20058;-82
2022/03/18 12:11:44;;;;;;;15.15;7.60;;;16.00;99.90;;;;;;4838895;29;20186;-84
2022/03/18 12:14:10;;;;;;;13.15;6.55;;;16.00;99.90;;;;;;4825569;29;20531;-86
2022/03/18 12:16:36;;;;;;;11.75;6.13;;;15.90;99.90;;;;;;4819154;29;20047;-87
2022/03/18 12:19:11;;;;;;;10.13;6.20;;;15.80;99.90;;;;;;4808409;29;20050;-83
2022/03/18 12:21:42;;;;;;;10.87;6.53;;;15.80;99.90;;;;;;4820839;29;20085;-85
2022/03/18 12:24:10;;;;;;;11.63;6.57;;;15.70;99.90;;;;;;4820844;29;20849;-84
2022/03/18 12:26:38;;;;;;;12.77;5.95;;;15.70;99.90;;;;;;4822270;29;20528;-84
2022/03/18 12:29:05;;;;;;;11.95;6.25;;;15.60;99.90;;;;;;4821481;29;20195;-87
2022/03/18 12:31:31;;;;;;;10.60;5.82;;;15.70;99.90;;;;;;4821777;29;20055;-87
2022/03/18 12:34:02;;;;;;;10.05;5.68;;;15.70;99.90;;;;;;4822871;29;20145;-86
2022/03/18 12:36:29;;;;;;;9.05;5.07;;;15.70;99.90;;;;;;4806612;29;20107;-87
2022/03/18 12:39:09;;;;;;;12.82;6.25;;;15.70;99.90;;;;;;4821270;29;20504;-89
2022/03/18 12:41:35;;;;;;;12.80;6.30;;;15.90;99.90;;;;;;4822859;29;20120;-85
2022/03/18 12:44:01;;;;;;;12.48;5.50;;;16.30;99.90;;;;;;4807350;29;20073;-90
2022/03/18 12:46:29;;;;;;;7.63;4.78;;;17.00;99.90;;;;;;4807175;29;20423;-91
2022/03/18 12:48:56;;;;;;;8.57;5.05;;;17.30;99.90;;;;;;4822928;29;20126;-85
2022/03/18 12:51:23;;;;;;;12.77;5.53;;;17.60;99.90;;;;;;4821287;29;20404;-92
2022/03/18 12:53:49;;;;;;;10.93;5.32;;;18.00;99.90;;;;;;4822305;29;20061;-86
2022/03/18 12:56:16;;;;;;;8.75;5.10;;;18.70;99.90;;;;;;4821396;29;20058;-88
2022/03/18 12:58:45;;;;;;;9.20;4.20;;;19.40;99.90;;;;;;4821579;29;20173;-88
2022/03/18 13:01:12;;;;;;;6.15;3.60;;;19.70;99.90;;;;;;4821430;29;20579;-89
2022/03/18 13:03:47;;;;;;;9.20;3.70;;;19.60;99.90;;;;;;4821891;29;20077;-86
2022/03/18 13:06:20;;;;;;;9.13;4.75;;;18.90;99.90;;;;;;4822949;29;20109;-84
2022/03/18 13:08:53;;;;;;;8.48;3.75;;;18.80;99.90;;;;;;4824745;29;20058;-88
2022/03/18 13:11:20;;;;;;;8.70;4.13;;;18.70;99.90;;;;;;4821534;29;20115;-84
2022/03/18 13:13:50;;;;;;;8.85;4.47;;;18.80;99.90;;;;;;4821469;29;20069;-84
2022/03/18 13:16:17;;;;;;;6.53;4.00;;;18.90;99.90;;;;;;4822322;29;20070;-86